Time;durP1;ratioP1;P1;durP2;ratioP2;P2;SDS_P1;SDS_P2;PMS_P1;PMS_P2;Temp;Humidity;BMP_temperature;BMP_pressure;BME280_temperature;BME280_humidity;BME280_pressure;Samples;Min_cycle;Max_cycle;Signal;HPM_P1;HPM_P2
2022/07/26 00:02:25;;;;;;;0.00;0.00;;;;;;;23.03;59.80;101361.47;5068619;28;20026;-82
2022/07/26 00:04:52;;;;;;;0.00;0.00;;;;;;;23.11;59.63;101358.25;5068746;28;20027;-82
2022/07/26 00:07:18;;;;;;;4.40;2.63;;;;;;;23.21;59.39;101364.81;5063036;28;20043;-81
2022/07/26 00:09:44;;;;;;;0.10;0.10;;;;;;;23.28;59.17;101362.59;5069946;28;20025;-81
2022/07/26 00:12:10;;;;;;;0.13;0.13;;;;;;;23.27;59.05;101372.53;5065203;28;20129;-81
2022/07/26 00:14:36;;;;;;;1.15;1.08;;;;;;;23.12;58.92;101370.81;5063764;28;20044;-79
2022/07/26 00:17:04;;;;;;;0.68;0.68;;;;;;;23.23;58.50;101373.72;5066011;28;20033;-80
2022/07/26 00:19:30;;;;;;;0.28;0.28;;;;;;;23.16;57.75;101380.47;5070199;28;20024;-81
2022/07/26 00:24:42;;;;;;;0.20;0.20;;;;;;;22.99;56.35;101380.66;5068143;28;20079;-80
2022/07/26 00:27:08;;;;;;;0.00;0.00;;;;;;;23.12;56.42;101375.34;5068393;28;20024;-78
2022/07/26 00:29:35;;;;;;;0.08;0.08;;;;;;;23.22;56.11;101379.22;5065510;28;20025;-77
2022/07/26 00:32:01;;;;;;;0.20;0.20;;;;;;;23.12;55.90;101387.03;5065449;28;20040;-79
2022/07/26 00:34:27;;;;;;;1.98;1.42;;;;;;;23.10;55.53;101388.94;5066995;28;20035;-79
2022/07/26 00:36:54;;;;;;;0.10;0.10;;;;;;;23.17;55.41;101389.47;5061446;28;20033;-79
2022/07/26 00:39:20;;;;;;;0.20;0.20;;;;;;;23.11;55.00;101390.69;5067249;28;20125;-79
2022/07/26 00:41:46;;;;;;;0.10;0.10;;;;;;;23.05;54.89;101397.38;5062404;28;20033;-80
2022/07/26 00:44:12;;;;;;;0.10;0.10;;;;;;;23.07;54.91;101389.16;5067247;28;20094;-79
2022/07/26 00:46:41;;;;;;;0.10;0.10;;;;;;;23.15;55.09;101392.22;5065562;28;21254;-79
2022/07/26 00:49:08;;;;;;;0.10;0.10;;;;;;;23.14;55.01;101401.31;5063750;28;20028;-79
2022/07/26 00:51:34;;;;;;;0.10;0.10;;;;;;;23.09;55.26;101400.72;5066279;28;20521;-79
2022/07/26 00:54:01;;;;;;;0.00;0.00;;;;;;;23.04;55.32;101405.56;5063276;28;20025;-80
2022/07/26 00:56:28;;;;;;;0.00;0.00;;;;;;;23.01;54.92;101413.88;5068595;28;20051;-80
2022/07/26 00:58:54;;;;;;;0.22;0.22;;;;;;;22.97;54.96;101412.31;5072604;28;20426;-82
2022/07/26 01:01:20;;;;;;;0.00;0.00;;;;;;;22.97;55.07;101412.31;5074265;28;20048;-82
2022/07/26 01:03:50;;;;;;;0.10;0.10;;;;;;;22.92;54.93;101412.63;5066827;28;20131;-81
2022/07/26 01:06:16;;;;;;;0.08;0.08;;;;;;;22.93;54.70;101404.41;5067642;28;20024;-82
2022/07/26 01:08:43;;;;;;;0.00;0.00;;;;;;;22.78;54.53;101410.78;5071262;28;20032;-82
2022/07/26 01:11:09;;;;;;;0.10;0.10;;;;;;;22.88;54.21;101411.06;5070271;28;20021;-82
2022/07/26 01:13:35;;;;;;;0.00;0.00;;;;;;;22.88;54.19;101411.94;5070816;28;20036;-81
2022/07/26 01:16:02;;;;;;;2.83;1.13;;;;;;;22.83;53.46;101407.78;5073679;28;20048;-82
2022/07/26 01:18:28;;;;;;;0.52;0.52;;;;;;;22.75;53.79;101410.97;5076414;28;20501;-81
2022/07/26 01:20:59;;;;;;;0.05;0.05;;;;;;;22.77;53.27;101414.47;5077272;28;20039;-82
2022/07/26 01:23:26;;;;;;;0.00;0.00;;;;;;;22.55;53.44;101415.78;5075540;28;20028;-81
2022/07/26 01:25:52;;;;;;;0.00;0.00;;;;;;;22.74;53.40;101420.94;5075268;28;20032;-80
2022/07/26 01:28:18;;;;;;;0.10;0.10;;;;;;;22.54;53.48;101416.75;5070757;28;20029;-80
2022/07/26 01:30:44;;;;;;;0.05;0.05;;;;;;;22.56;53.56;101417.50;5070454;28;20029;-80
2022/07/26 01:33:11;;;;;;;0.00;0.00;;;;;;;22.34;54.46;101419.75;5076766;28;20033;-81
2022/07/26 01:35:37;;;;;;;0.00;0.00;;;;;;;22.35;54.38;101426.91;5081209;28;20047;-81
2022/07/26 01:38:03;;;;;;;0.00;0.00;;;;;;;22.40;54.27;101422.97;5080951;28;20111;-80
2022/07/26 01:40:29;;;;;;;0.00;0.00;;;;;;;22.39;54.31;101423.09;5076890;28;20201;-81
2022/07/26 01:42:55;;;;;;;0.10;0.10;;;;;;;22.28;54.64;101421.88;5073651;28;20032;-81
2022/07/26 01:45:21;;;;;;;1.45;1.35;;;;;;;22.20;54.96;101437.66;5075848;28;20028;-81
2022/07/26 01:47:49;;;;;;;0.10;0.10;;;;;;;22.15;55.07;101428.97;5077796;28;20025;-81
2022/07/26 01:50:16;;;;;;;0.10;0.10;;;;;;;22.07;55.69;101436.63;5076548;28;20017;-80
2022/07/26 01:52:43;;;;;;;0.08;0.08;;;;;;;22.02;55.75;101444.13;5082174;28;20048;-80
2022/07/26 01:55:09;;;;;;;0.00;0.00;;;;;;;22.03;56.09;101430.56;5074565;28;20570;-80
2022/07/26 01:57:35;;;;;;;0.00;0.00;;;;;;;21.86;56.93;101441.47;5072822;28;20028;-81
2022/07/26 02:00:05;;;;;;;0.00;0.00;;;;;;;21.98;56.25;101438.03;5083288;28;20020;-81
2022/07/26 02:02:31;;;;;;;0.10;0.10;;;;;;;21.95;56.22;101438.25;5071661;28;20512;-82
2022/07/26 02:04:57;;;;;;;0.00;0.00;;;;;;;21.92;56.78;101438.41;5074035;28;20620;-83
2022/07/26 02:10:18;;;;;;;0.00;0.00;;;;;;;21.94;56.84;101442.78;5094492;27;20480;-83
2022/07/26 02:12:44;;;;;;;0.10;0.10;;;;;;;21.96;56.30;101432.75;5068005;28;20029;-82
2022/07/26 02:15:12;;;;;;;0.10;0.10;;;;;;;21.83;57.14;101429.03;5072473;28;20491;-82
2022/07/26 02:17:39;;;;;;;0.05;0.05;;;;;;;21.84;57.41;101435.31;5071442;28;20048;-82
2022/07/26 02:20:06;;;;;;;0.10;0.10;;;;;;;21.77;57.71;101435.66;5069034;28;20036;-81
2022/07/26 02:22:32;;;;;;;0.10;0.10;;;;;;;21.63;58.29;101431.06;5069704;28;20031;-81
2022/07/26 02:24:59;;;;;;;0.25;0.25;;;;;;;21.59;58.48;101445.66;5068615;28;20061;-82
2022/07/26 02:27:25;;;;;;;0.03;0.03;;;;;;;21.71;57.65;101440.53;5069082;28;20029;-82
2022/07/26 02:29:51;;;;;;;0.00;0.00;;;;;;;21.67;58.06;101447.06;5072998;28;20036;-82
2022/07/26 02:32:17;;;;;;;1.33;0.35;;;;;;;21.57;58.66;101441.31;5068120;28;20429;-82
2022/07/26 02:34:44;;;;;;;0.05;0.05;;;;;;;21.64;57.81;101435.47;5069968;28;20538;-82
2022/07/26 02:37:10;;;;;;;0.32;0.32;;;;;;;21.55;58.70;101438.69;5063492;28;20477;-82
2022/07/26 02:39:36;;;;;;;0.08;0.08;;;;;;;21.58;58.30;101448.47;5069861;28;20415;-82
2022/07/26 02:42:03;;;;;;;0.00;0.00;;;;;;;21.42;59.23;101445.72;5067198;28;20100;-81
2022/07/26 02:44:29;;;;;;;0.38;0.38;;;;;;;21.47;58.91;101452.59;5070092;28;20033;-81
2022/07/26 02:46:55;;;;;;;0.00;0.00;;;;;;;21.47;58.57;101443.63;5069150;28;20084;-81
2022/07/26 02:49:22;;;;;;;0.10;0.10;;;;;;;21.39;59.14;101454.00;5070012;28;20028;-81
2022/07/26 02:51:48;;;;;;;0.10;0.10;;;;;;;21.41;58.90;101454.75;5070049;28;20056;-80
2022/07/26 02:54:14;;;;;;;0.10;0.10;;;;;;;21.27;59.80;101448.34;5070047;28;20033;-80
2022/07/26 02:56:40;;;;;;;0.10;0.10;;;;;;;21.26;59.21;101462.75;5068159;28;20029;-80
2022/07/26 02:59:07;;;;;;;0.10;0.10;;;;;;;21.23;59.37;101457.53;5065405;28;20055;-80
2022/07/26 03:01:34;;;;;;;0.43;0.43;;;;;;;21.25;59.14;101455.63;5065624;28;20032;-81
2022/07/26 03:04:01;;;;;;;1.13;0.80;;;;;;;21.22;59.38;101461.19;5068787;28;20033;-80
2022/07/26 03:06:27;;;;;;;0.13;0.13;;;;;;;21.16;59.87;101462.38;5067687;28;20124;-81
2022/07/26 03:08:54;;;;;;;0.10;0.10;;;;;;;21.18;59.82;101467.69;5070335;28;20032;-80
2022/07/26 03:11:20;;;;;;;0.10;0.10;;;;;;;21.11;60.53;101468.97;5061749;28;20037;-81
2022/07/26 03:13:46;;;;;;;0.00;0.00;;;;;;;21.10;60.61;101472.66;5062169;28;20044;-81
2022/07/26 03:16:12;;;;;;;0.10;0.10;;;;;;;21.06;60.72;101476.44;5061195;28;20044;-81
2022/07/26 03:18:38;;;;;;;0.03;0.03;;;;;;;21.05;60.55;101480.09;5066543;28;20446;-81
2022/07/26 03:21:04;;;;;;;0.20;0.20;;;;;;;20.96;60.99;101476.06;5053997;28;20038;-80
2022/07/26 03:23:32;;;;;;;0.10;0.10;;;;;;;20.96;60.95;101481.44;5053118;28;20032;-80
2022/07/26 03:25:58;;;;;;;0.45;0.45;;;;;;;20.89;61.42;101482.75;5049066;28;20376;-81
2022/07/26 03:28:24;;;;;;;0.13;0.13;;;;;;;20.84;61.15;101488.38;5050510;28;20032;-81
2022/07/26 03:30:51;;;;;;;0.10;0.10;;;;;;;20.89;61.39;101489.00;5053190;28;20025;-81
2022/07/26 03:33:17;;;;;;;0.10;0.10;;;;;;;20.88;61.47;101489.94;5051215;28;20118;-81
2022/07/26 03:35:43;;;;;;;0.10;0.10;;;;;;;20.90;61.08;101488.06;5048311;28;20764;-81
2022/07/26 03:38:09;;;;;;;0.00;0.00;;;;;;;20.81;61.32;101496.59;5053161;28;20461;-82
2022/07/26 03:40:35;;;;;;;0.10;0.10;;;;;;;20.84;60.84;101494.63;5050063;28;20025;-81
2022/07/26 03:43:01;;;;;;;0.47;0.47;;;;;;;20.79;61.48;101503.91;5044301;28;20414;-81
2022/07/26 03:45:28;;;;;;;0.08;0.08;;;;;;;20.67;61.64;101503.56;5045373;28;20041;-81
2022/07/26 03:47:54;;;;;;;0.10;0.10;;;;;;;20.72;61.64;101505.19;5049419;28;20033;-80
2022/07/26 03:50:20;;;;;;;0.10;0.10;;;;;;;20.73;61.54;101506.94;5049648;28;20116;-80
2022/07/26 03:52:46;;;;;;;0.10;0.10;;;;;;;20.68;62.17;101507.97;5047726;28;20037;-82
2022/07/26 03:57:58;;;;;;;0.08;0.08;;;;;;;20.68;61.65;101493.66;5047175;28;20048;-81
2022/07/26 04:00:25;;;;;;;0.00;0.00;;;;;;;20.69;61.20;101504.34;5041648;28;20059;-81
2022/07/26 04:02:51;;;;;;;0.10;0.10;;;;;;;20.56;62.45;101507.75;5048862;28;20064;-82
2022/07/26 04:05:17;;;;;;;2.35;0.80;;;;;;;20.53;62.27;101511.47;5049918;28;20029;-84
2022/07/26 04:07:45;;;;;;;0.10;0.10;;;;;;;20.57;62.05;101510.38;5048146;28;20033;-84
2022/07/26 04:10:12;;;;;;;0.00;0.00;;;;;;;20.52;62.32;101505.25;5048054;28;20037;-81
2022/07/26 04:12:38;;;;;;;0.30;0.30;;;;;;;20.58;62.05;101504.03;5047601;28;20393;-81
2022/07/26 04:15:06;;;;;;;0.03;0.03;;;;;;;20.59;62.04;101508.47;5047906;28;20123;-81
2022/07/26 04:17:40;;;;;;;0.10;0.10;;;;;;;20.57;62.08;101507.69;5046504;28;20398;-82
2022/07/26 04:20:08;;;;;;;0.00;0.00;;;;;;;20.60;61.74;101510.22;5048115;28;20578;-82
2022/07/26 04:22:36;;;;;;;1.77;0.98;;;;;;;20.56;61.79;101511.34;5049124;28;20062;-82
2022/07/26 04:25:03;;;;;;;0.10;0.10;;;;;;;20.52;62.34;101512.44;5047954;28;20032;-81
2022/07/26 04:27:29;;;;;;;0.00;0.00;;;;;;;20.54;62.44;101513.22;5067231;22;20100;-79
2022/07/26 04:29:55;;;;;;;0.00;0.00;;;;;;;20.60;61.76;101512.91;5092283;28;20040;-81
2022/07/26 04:32:21;;;;;;;0.10;0.10;;;;;;;20.52;62.68;101525.88;5093536;28;20027;-81
2022/07/26 04:34:48;;;;;;;0.05;0.05;;;;;;;20.56;62.05;101522.09;5092329;28;20040;-81
2022/07/26 04:37:14;;;;;;;0.10;0.10;;;;;;;20.55;62.23;101514.97;5093743;28;20074;-82
2022/07/26 04:39:40;;;;;;;0.00;0.00;;;;;;;20.52;62.45;101509.75;5096842;28;20038;-79
2022/07/26 04:42:06;;;;;;;0.00;0.00;;;;;;;20.52;62.34;101510.63;5089629;28;20100;-81
2022/07/26 04:44:32;;;;;;;0.00;0.00;;;;;;;20.52;61.97;101515.13;5089905;28;20081;-80
2022/07/26 04:47:01;;;;;;;0.00;0.00;;;;;;;20.46;62.72;101515.44;5092740;28;20403;-80
2022/07/26 04:49:27;;;;;;;0.00;0.00;;;;;;;20.52;62.07;101521.41;5086099;28;20368;-80
2022/07/26 04:51:53;;;;;;;0.00;0.00;;;;;;;20.51;62.26;101518.75;5089174;28;20035;-80
2022/07/26 04:54:21;;;;;;;0.03;0.03;;;;;;;20.55;61.92;101523.06;5092777;28;20109;-81
2022/07/26 04:56:48;;;;;;;0.10;0.10;;;;;;;20.52;62.53;101523.19;5095563;28;20042;-80
2022/07/26 04:59:16;;;;;;;0.10;0.10;;;;;;;20.58;62.37;101530.97;5092015;28;20028;-81
2022/07/26 05:01:43;;;;;;;0.10;0.10;;;;;;;20.66;62.24;101533.25;5092280;28;20491;-80
2022/07/26 05:04:09;;;;;;;0.00;0.00;;;;;;;20.66;62.53;101534.13;5087768;28;20036;-81
2022/07/26 05:06:35;;;;;;;0.10;0.10;;;;;;;20.76;61.87;101537.25;5092687;28;20028;-80
2022/07/26 05:09:01;;;;;;;0.10;0.10;;;;;;;20.86;61.71;101534.97;5092685;28;20043;-80
2022/07/26 05:11:27;;;;;;;0.00;0.00;;;;;;;20.95;61.69;101541.69;5087317;28;20190;-80
2022/07/26 05:13:54;;;;;;;0.10;0.10;;;;;;;21.01;61.75;101544.91;5094560;28;20060;-80
2022/07/26 05:16:20;;;;;;;0.10;0.10;;;;;;;21.03;61.74;101546.66;5092942;28;20051;-80
2022/07/26 05:18:46;;;;;;;0.10;0.10;;;;;;;21.11;61.28;101552.50;5091649;28;20028;-80
2022/07/26 05:21:12;;;;;;;0.00;0.00;;;;;;;21.17;61.07;101555.75;5097578;28;20111;-81
2022/07/26 05:23:38;;;;;;;1.02;0.30;;;;;;;21.10;62.58;101564.25;5090733;28;20144;-79
2022/07/26 05:26:04;;;;;;;0.00;0.00;;;;;;;20.98;62.63;101569.31;5093115;28;20032;-79
2022/07/26 05:28:30;;;;;;;0.55;0.55;;;;;;;20.79;63.28;101572.09;5091259;28;20055;-80
2022/07/26 05:30:56;;;;;;;0.00;0.00;;;;;;;20.65;64.33;101586.25;5098385;28;20056;-79
2022/07/26 05:33:22;;;;;;;0.00;0.00;;;;;;;20.35;65.41;101592.22;5090053;28;20039;-79
2022/07/26 05:35:48;;;;;;;0.00;0.00;;;;;;;20.22;66.35;101582.13;5094217;28;20141;-79
2022/07/26 05:38:14;;;;;;;0.63;0.63;;;;;;;20.02;66.67;101587.50;5095524;28;20039;-79
2022/07/26 05:40:41;;;;;;;0.15;0.15;;;;;;;19.86;67.43;101586.50;5096045;28;20468;-79
2022/07/26 05:43:07;;;;;;;0.00;0.00;;;;;;;19.79;67.47;101598.47;5089953;28;20039;-79
2022/07/26 05:45:33;;;;;;;0.10;0.10;;;;;;;19.71;67.18;101599.72;5094884;28;20031;-79
2022/07/26 05:47:59;;;;;;;0.00;0.00;;;;;;;19.66;68.00;101598.16;5094233;28;20028;-79
2022/07/26 05:50:25;;;;;;;0.00;0.00;;;;;;;19.69;67.78;101606.97;5101482;28;20035;-80
2022/07/26 05:52:51;;;;;;;0.00;0.00;;;;;;;19.67;67.55;101611.53;5091484;28;21194;-79
2022/07/26 05:55:17;;;;;;;0.10;0.10;;;;;;;19.70;67.12;101614.09;5093129;28;20028;-77
2022/07/26 05:57:46;;;;;;;0.10;0.10;;;;;;;19.69;68.91;101615.03;5088392;28;20035;-80
2022/07/26 06:00:13;;;;;;;0.00;0.00;;;;;;;19.64;69.46;101613.47;5090657;28;20059;-80
2022/07/26 06:02:40;;;;;;;0.22;0.22;;;;;;;19.76;69.23;101620.13;5088965;28;20448;-79
2022/07/26 06:05:07;;;;;;;0.05;0.05;;;;;;;19.86;68.30;101621.47;5090846;28;20119;-80
2022/07/26 06:07:33;;;;;;;0.10;0.10;;;;;;;19.94;67.85;101619.31;5083661;28;20024;-79
2022/07/26 06:09:59;;;;;;;0.10;0.10;;;;;;;20.01;68.15;101630.63;5090171;28;20035;-79
2022/07/26 06:12:25;;;;;;;0.00;0.00;;;;;;;20.09;67.94;101633.84;5081940;28;20118;-78
2022/07/26 06:14:51;;;;;;;0.10;0.10;;;;;;;20.17;67.78;101638.84;5088584;28;20395;-79
2022/07/26 06:17:18;;;;;;;0.10;0.10;;;;;;;20.24;67.66;101634.94;5088372;28;20113;-79
2022/07/26 06:19:44;;;;;;;0.10;0.10;;;;;;;20.33;67.87;101634.47;5085691;28;20034;-79
2022/07/26 06:22:10;;;;;;;0.10;0.10;;;;;;;20.39;67.89;101643.19;5085811;28;20024;-78
2022/07/26 06:24:36;;;;;;;0.10;0.10;;;;;;;20.45;67.33;101645.56;5093795;28;20047;-79
2022/07/26 06:27:02;;;;;;;0.10;0.10;;;;;;;20.48;68.12;101649.00;5089310;28;20028;-79
2022/07/26 06:29:28;;;;;;;0.08;0.08;;;;;;;20.55;67.88;101663.03;5088713;28;20113;-79
2022/07/26 06:31:54;;;;;;;0.00;0.00;;;;;;;20.63;66.68;101663.53;5087468;28;20032;-77
2022/07/26 06:34:20;;;;;;;0.30;0.30;;;;;;;20.60;67.64;101666.38;5097615;28;20073;-79
2022/07/26 06:36:47;;;;;;;0.10;0.10;;;;;;;20.51;67.41;101673.09;5091678;28;20035;-80
2022/07/26 06:39:13;;;;;;;0.00;0.00;;;;;;;20.61;66.69;101678.00;5086891;28;20036;-78
2022/07/26 06:41:39;;;;;;;0.00;0.00;;;;;;;20.56;66.57;101678.25;5085050;28;20032;-76
2022/07/26 06:44:05;;;;;;;0.13;0.13;;;;;;;20.49;67.01;101677.66;5094009;28;20043;-79
2022/07/26 06:46:31;;;;;;;0.10;0.10;;;;;;;20.49;66.99;101677.66;5089075;28;20028;-79
2022/07/26 06:48:57;;;;;;;0.10;0.10;;;;;;;20.54;67.02;101680.13;5086774;28;20025;-79
2022/07/26 06:51:23;;;;;;;0.10;0.10;;;;;;;20.56;67.64;101686.34;5089605;28;20084;-79
2022/07/26 06:53:50;;;;;;;0.10;0.10;;;;;;;20.58;67.02;101688.94;5086243;28;20032;-79
2022/07/26 06:56:18;;;;;;;0.10;0.10;;;;;;;20.56;66.94;101690.81;5092691;28;20024;-79
2022/07/26 06:58:45;;;;;;;0.00;0.00;;;;;;;20.57;66.96;101690.75;5094166;28;20027;-79
2022/07/26 07:01:11;;;;;;;0.10;0.10;;;;;;;20.55;67.00;101697.16;5087575;28;20086;-79
2022/07/26 07:03:38;;;;;;;0.40;0.40;;;;;;;20.62;67.10;101695.91;5091097;28;20035;-78
2022/07/26 07:06:04;;;;;;;0.10;0.10;;;;;;;20.68;66.72;101698.31;5091668;28;20047;-77
2022/07/26 07:08:30;;;;;;;0.05;0.05;;;;;;;20.69;66.49;101695.53;5092292;28;20140;-78
2022/07/26 07:10:56;;;;;;;0.00;0.00;;;;;;;20.68;66.42;101704.53;5093176;28;20040;-78
2022/07/26 07:13:22;;;;;;;0.10;0.10;;;;;;;20.70;65.17;101704.50;5090821;28;20031;-78
2022/07/26 07:15:48;;;;;;;0.00;0.00;;;;;;;20.69;65.16;101706.31;5088051;28;20029;-78
2022/07/26 07:18:14;;;;;;;0.00;0.00;;;;;;;20.72;65.13;101705.31;5094762;28;20486;-78
2022/07/26 07:20:41;;;;;;;0.05;0.05;;;;;;;20.67;64.71;101702.84;5089720;28;20149;-78
2022/07/26 07:23:07;;;;;;;0.00;0.00;;;;;;;20.65;64.68;101712.78;5093534;28;20024;-79
2022/07/26 07:25:33;;;;;;;0.00;0.00;;;;;;;20.58;64.55;101707.78;5088807;28;20039;-79
2022/07/26 07:27:59;;;;;;;0.00;0.00;;;;;;;20.66;64.47;101706.47;5090046;28;20507;-78
2022/07/26 07:30:26;;;;;;;0.00;0.00;;;;;;;20.65;64.10;101707.41;5092722;28;20928;-77
2022/07/26 07:32:52;;;;;;;0.08;0.08;;;;;;;20.69;64.37;101722.47;5087477;28;20035;-78
2022/07/26 07:35:19;;;;;;;0.00;0.00;;;;;;;20.66;63.98;101722.63;5088328;28;20077;-77
2022/07/26 07:37:45;;;;;;;0.10;0.10;;;;;;;20.65;63.94;101726.25;5086986;28;20407;-79
2022/07/26 07:40:11;;;;;;;0.55;0.55;;;;;;;20.71;63.38;101732.28;5091515;28;20399;-78
2022/07/26 07:42:37;;;;;;;0.73;0.73;;;;;;;20.83;63.48;101729.03;5094132;28;20032;-78
2022/07/26 07:45:04;;;;;;;0.10;0.10;;;;;;;20.98;63.81;101722.00;5095449;28;20054;-78
2022/07/26 07:47:33;;;;;;;0.00;0.00;;;;;;;21.15;63.41;101719.34;5101394;28;20031;-77
2022/07/26 07:49:59;;;;;;;0.10;0.10;;;;;;;21.29;62.94;101713.22;5095178;28;20024;-77
2022/07/26 07:52:25;;;;;;;0.20;0.20;;;;;;;21.44;62.93;101718.78;5086016;28;20576;-78
2022/07/26 07:54:52;;;;;;;0.00;0.00;;;;;;;21.54;62.74;101717.34;5100436;28;20535;-79
2022/07/26 07:57:19;;;;;;;0.20;0.20;;;;;;;21.57;62.56;101714.53;5104803;28;20020;-78
2022/07/26 07:59:45;;;;;;;0.00;0.00;;;;;;;21.55;62.05;101711.00;5093987;28;20089;-77
2022/07/26 08:02:14;;;;;;;0.20;0.20;;;;;;;21.44;60.89;101724.19;5090111;28;20491;-77
2022/07/26 08:04:40;;;;;;;0.08;0.08;;;;;;;21.44;60.89;101725.03;5094126;28;20024;-79
2022/07/26 08:07:06;;;;;;;0.10;0.10;;;;;;;21.36;61.46;101745.25;5093718;28;20029;-79
2022/07/26 08:09:32;;;;;;;0.43;0.43;;;;;;;21.34;62.09;101757.00;5094803;28;20024;-80
2022/07/26 08:11:58;;;;;;;0.10;0.10;;;;;;;21.17;61.90;101756.97;5095031;28;20036;-78
2022/07/26 08:14:24;;;;;;;0.10;0.10;;;;;;;21.08;61.55;101749.38;5098167;28;20032;-79
2022/07/26 08:16:51;;;;;;;0.10;0.10;;;;;;;21.06;61.67;101760.22;5092407;28;20042;-80
2022/07/26 08:19:17;;;;;;;0.10;0.10;;;;;;;20.95;61.69;101760.75;5089664;28;20411;-80
2022/07/26 08:21:44;;;;;;;0.05;0.05;;;;;;;20.95;61.39;101760.75;5094110;28;20036;-77
2022/07/26 08:24:11;;;;;;;0.10;0.10;;;;;;;20.98;61.48;101760.59;5090534;28;20045;-79
2022/07/26 08:26:38;;;;;;;0.10;0.10;;;;;;;21.08;61.66;101760.16;5089111;28;20027;-80
2022/07/26 08:29:04;;;;;;;0.00;0.00;;;;;;;21.15;61.53;101762.44;5090144;28;20044;-77
2022/07/26 08:31:30;;;;;;;0.28;0.28;;;;;;;21.24;61.11;101771.88;5091017;28;20028;-79
2022/07/26 08:33:56;;;;;;;0.00;0.00;;;;;;;21.34;60.45;101775.84;5096046;28;20053;-79
2022/07/26 08:36:22;;;;;;;0.10;0.10;;;;;;;21.39;59.34;101774.78;5095282;28;20046;-78
2022/07/26 08:38:49;;;;;;;0.10;0.10;;;;;;;21.48;59.02;101779.69;5092177;28;20114;-82
2022/07/26 08:41:16;;;;;;;0.10;0.10;;;;;;;21.54;58.72;101781.22;5083684;28;20043;-78
2022/07/26 08:43:43;;;;;;;0.00;0.00;;;;;;;21.64;58.89;101780.66;5087571;28;21490;-78
2022/07/26 08:46:09;;;;;;;0.00;0.00;;;;;;;21.68;58.38;101775.13;5089584;28;20399;-79
2022/07/26 08:48:35;;;;;;;0.10;0.10;;;;;;;21.74;58.42;101781.06;5086657;28;20040;-79
2022/07/26 08:51:08;;;;;;;0.00;0.00;;;;;;;21.85;58.64;101780.50;5081883;28;20520;-79
2022/07/26 08:53:36;;;;;;;0.00;0.00;;;;;;;21.82;57.85;101777.97;5086930;28;20469;-78
2022/07/26 08:56:04;;;;;;;0.03;0.03;;;;;;;21.94;58.73;101782.72;5085157;28;20132;-79
2022/07/26 08:58:34;;;;;;;0.10;0.10;;;;;;;21.92;57.88;101783.72;5089683;28;20153;-79
2022/07/26 09:01:05;;;;;;;0.10;0.10;;;;;;;22.16;58.68;101786.06;5085661;28;20038;-79
2022/07/26 09:03:36;;;;;;;0.10;0.10;;;;;;;22.25;58.32;101786.44;5090158;28;20027;-79
2022/07/26 09:06:20;;;;;;;0.10;0.10;;;;;;;22.69;57.23;101789.50;5088995;28;20483;-79
2022/07/26 09:08:49;;;;;;;0.08;0.08;;;;;;;22.77;56.23;101784.56;5086922;28;20027;-78
2022/07/26 09:11:31;;;;;;;0.20;0.20;;;;;;;22.99;55.01;101796.84;5091807;28;20081;-79
2022/07/26 09:14:02;;;;;;;0.10;0.10;;;;;;;22.96;54.70;101788.91;5091314;28;20184;-79
2022/07/26 09:16:29;;;;;;;0.10;0.10;;;;;;;22.97;54.34;101794.22;5092408;28;20028;-78
2022/07/26 09:19:14;;;;;;;0.03;0.03;;;;;;;23.00;55.91;101798.59;5091659;28;20038;-77
2022/07/26 09:21:40;;;;;;;0.10;0.10;;;;;;;23.04;55.46;101806.44;5091869;28;20024;-76
2022/07/26 09:24:06;;;;;;;0.10;0.10;;;;;;;22.92;53.89;101810.69;5090763;28;20483;-77
2022/07/26 09:26:33;;;;;;;0.10;0.10;;;;;;;22.70;52.08;101819.13;5091887;28;20039;-78
2022/07/26 09:31:39;;;;;;;0.10;0.10;;;;;;;22.33;51.56;101822.97;5069254;28;20400;-78
2022/07/26 09:34:06;;;;;;;0.10;0.10;;;;;;;22.23;52.99;101828.88;5046771;28;20026;-78
2022/07/26 09:36:32;;;;;;;0.80;0.80;;;;;;;22.11;53.07;101826.81;5049371;28;20075;-77
2022/07/26 09:39:02;;;;;;;0.10;0.10;;;;;;;21.93;52.08;101848.44;5033661;28;20136;-78
2022/07/26 09:41:31;;;;;;;0.10;0.10;;;;;;;21.87;53.84;101846.06;5043328;28;20034;-78
2022/07/26 09:44:00;;;;;;;0.10;0.10;;;;;;;21.92;53.57;101843.97;5031638;28;20042;-79
2022/07/26 09:46:29;;;;;;;0.10;0.10;;;;;;;22.02;54.06;101840.78;5030386;28;20038;-78
2022/07/26 09:49:15;;;;;;;0.10;0.10;;;;;;;22.10;54.31;101838.56;5028879;28;20022;-76
2022/07/26 09:51:44;;;;;;;0.10;0.10;;;;;;;22.22;52.95;101845.13;5028100;28;20598;-78
2022/07/26 09:54:16;;;;;;;0.00;0.00;;;;;;;22.32;53.89;101841.00;5030484;28;20037;-77
2022/07/26 09:56:47;;;;;;;0.63;0.63;;;;;;;22.36;53.28;101847.97;5030387;28;20042;-78
2022/07/26 09:59:16;;;;;;;0.10;0.10;;;;;;;22.45;53.01;101852.94;5022027;28;20033;-76
2022/07/26 10:01:43;;;;;;;0.08;0.08;;;;;;;22.52;53.06;101852.56;5026807;28;20051;-79
2022/07/26 10:04:09;;;;;;;0.10;0.10;;;;;;;22.58;53.22;101846.81;5024835;28;20112;-79
2022/07/26 10:06:36;;;;;;;0.10;0.10;;;;;;;22.72;53.40;101848.78;5027626;28;20072;-76
2022/07/26 10:09:03;;;;;;;0.10;0.10;;;;;;;22.79;53.39;101855.56;5024146;28;20068;-77
2022/07/26 10:11:46;;;;;;;0.10;0.10;;;;;;;22.78;52.40;101852.00;5026685;28;20116;-77
2022/07/26 10:17:38;;;;;;;0.10;0.10;;;;;;;23.21;53.28;101846.03;5126922;27;20356;-76
2022/07/26 10:20:07;;;;;;;3.13;0.75;;;;;;;23.16;51.16;101849.97;5103902;28;20398;-80
2022/07/26 10:22:43;;;;;;;0.10;0.10;;;;;;;23.12;51.20;101860.03;5104899;28;20043;-77
2022/07/26 10:28:01;;;;;;;0.57;0.57;;;;;;;23.34;51.81;101862.44;5097263;22;20396;-83
2022/07/26 10:30:28;;;;;;;0.52;0.52;;;;;;;23.36;51.73;101860.50;5040675;28;20169;-82
2022/07/26 10:32:59;;;;;;;0.10;0.10;;;;;;;23.35;51.17;101863.28;5042070;28;20034;-83
2022/07/26 10:35:39;;;;;;;1.08;0.65;;;;;;;23.31;50.29;101865.28;5026329;28;20061;-82
2022/07/26 10:38:09;;;;;;;0.10;0.10;;;;;;;23.56;51.18;101866.56;5026585;28;20372;-81
2022/07/26 10:40:37;;;;;;;0.10;0.10;;;;;;;23.71;50.03;101870.19;5021536;28;20018;-82
2022/07/26 10:43:18;;;;;;;0.00;0.00;;;;;;;23.80;48.94;101875.09;5025709;28;20041;-80
2022/07/26 10:45:44;;;;;;;0.85;0.63;;;;;;;23.94;49.70;101870.69;5025610;28;20038;-81
2022/07/26 10:48:22;;;;;;;0.10;0.10;;;;;;;24.03;49.31;101876.41;5027320;28;20041;-81
2022/07/26 10:50:53;;;;;;;0.00;0.00;;;;;;;24.16;49.03;101881.09;5021796;28;20029;-79
2022/07/26 10:53:22;;;;;;;0.10;0.10;;;;;;;24.34;48.74;101873.69;5020495;28;20053;-79
2022/07/26 10:55:51;;;;;;;0.10;0.10;;;;;;;24.48;47.33;101870.97;5020519;28;20030;-82
2022/07/26 10:58:18;;;;;;;0.10;0.10;;;;;;;24.64;47.37;101870.00;5029690;28;20038;-82
2022/07/26 11:01:03;;;;;;;0.98;0.85;;;;;;;24.87;47.86;101872.16;5022910;28;20116;-81
2022/07/26 11:03:44;;;;;;;0.10;0.10;;;;;;;24.95;47.59;101877.06;5022213;28;20025;-83
2022/07/26 11:06:16;;;;;;;0.10;0.10;;;;;;;24.96;45.92;101876.09;5024247;28;20033;-80
2022/07/26 11:08:45;;;;;;;1.13;0.65;;;;;;;25.02;46.51;101883.84;5016517;28;20045;-79
2022/07/26 11:11:12;;;;;;;0.90;0.90;;;;;;;25.09;47.36;101878.88;5017786;28;20045;-80
2022/07/26 11:13:39;;;;;;;0.10;0.10;;;;;;;24.91;44.77;101888.19;5024137;28;20044;-81
2022/07/26 11:16:08;;;;;;;0.10;0.10;;;;;;;24.86;45.80;101888.50;5024834;28;20026;-82
2022/07/26 11:18:36;;;;;;;0.10;0.10;;;;;;;24.73;46.75;101888.41;5015816;28;20030;-80
2022/07/26 11:21:18;;;;;;;0.10;0.10;;;;;;;24.67;46.52;101892.41;5020121;28;20123;-79
2022/07/26 11:23:46;;;;;;;8.85;1.35;;;;;;;24.65;46.91;101894.31;5026214;28;20064;-79
2022/07/26 11:29:11;;;;;;;0.30;0.30;;;;;;;24.78;45.85;101898.97;5076375;28;20914;-81
2022/07/26 11:31:40;;;;;;;0.10;0.10;;;;;;;24.91;45.19;101894.50;5072551;28;20521;-80
2022/07/26 11:34:14;;;;;;;0.10;0.10;;;;;;;25.13;46.57;101899.38;5067821;28;20033;-81
2022/07/26 11:36:43;;;;;;;0.15;0.15;;;;;;;25.14;45.95;101906.56;5066500;28;20028;-80
2022/07/26 11:39:12;;;;;;;0.47;0.47;;;;;;;25.13;45.38;101901.25;5070075;28;20660;-81
2022/07/26 11:41:40;;;;;;;0.10;0.10;;;;;;;25.08;44.17;101901.53;5064335;28;20043;-80
2022/07/26 11:44:15;;;;;;;0.20;0.20;;;;;;;25.24;44.21;101892.41;5065909;28;20029;-80
2022/07/26 11:46:46;;;;;;;0.00;0.00;;;;;;;25.48;45.76;101893.53;5057946;28;20036;-81